Time;durP1;ratioP1;P1;durP2;ratioP2;P2;SDS_P1;SDS_P2;PMS_P1;PMS_P2;Temp;Humidity;BMP_temperature;BMP_pressure;BME280_temperature;BME280_humidity;BME280_pressure;Samples;Min_cycle;Max_cycle;Signal;HPM_P1;HPM_P2
2022/11/08 00:01:36;;;;;;;1.83;0.20;;;11.80;99.90;;;;;;5048580;28;20417;-77
2022/11/08 00:04:13;;;;;;;2.00;0.20;;;11.70;99.90;;;;;;5049606;28;20083;-84
2022/11/08 00:14:55;;;;;;;1.02;0.22;;;11.80;99.90;;;;;;5049959;28;20040;-86
2022/11/08 00:17:22;;;;;;;3.00;0.30;;;11.80;99.90;;;;;;5031456;28;20533;-90
2022/11/08 00:19:48;;;;;;;4.07;0.30;;;11.80;99.90;;;;;;5047553;28;20055;-92
2022/11/08 00:22:14;;;;;;;3.63;0.20;;;11.80;99.90;;;;;;5031625;28;20116;-95
2022/11/08 00:24:40;;;;;;;2.00;0.20;;;11.80;99.90;;;;;;5049270;28;20021;-78
2022/11/08 00:27:10;;;;;;;1.92;0.30;;;11.70;99.90;;;;;;5049435;28;20033;-91
2022/11/08 00:29:36;;;;;;;1.65;0.20;;;11.70;99.90;;;;;;5031373;28;20501;-76
2022/11/08 00:32:07;;;;;;;1.02;0.20;;;11.80;99.90;;;;;;5031258;28;20040;-77
2022/11/08 00:34:34;;;;;;;1.63;0.17;;;11.70;99.90;;;;;;5047831;28;20048;-82
2022/11/08 00:37:00;;;;;;;2.33;0.22;;;11.70;99.90;;;;;;5030317;28;20067;-88
2022/11/08 00:39:26;;;;;;;2.83;0.20;;;11.70;99.90;;;;;;5016588;28;20047;-84
2022/11/08 00:41:52;;;;;;;2.15;0.20;;;11.70;99.90;;;;;;5030879;28;20033;-93
2022/11/08 00:44:17;;;;;;;1.52;0.30;;;11.60;99.90;;;;;;5049385;28;20056;-77
2022/11/08 00:46:43;;;;;;;1.85;0.20;;;11.60;99.90;;;;;;5040812;28;20029;-77
2022/11/08 00:49:09;;;;;;;3.72;0.38;;;11.60;99.90;;;;;;5031251;28;20033;-87
2022/11/08 00:51:36;;;;;;;2.03;0.20;;;11.60;99.90;;;;;;5036889;28;20497;-91
2022/11/08 00:54:04;;;;;;;3.10;0.20;;;11.50;99.90;;;;;;5030924;28;20104;-92
2022/11/08 00:56:29;;;;;;;2.33;0.25;;;11.50;99.90;;;;;;5046594;28;20099;-93
2022/11/08 00:58:56;;;;;;;2.38;0.20;;;11.50;99.90;;;;;;5028598;28;20032;-76
2022/11/08 01:01:22;;;;;;;4.95;0.30;;;11.50;99.90;;;;;;5030642;28;20040;-77
2022/11/08 01:03:48;;;;;;;1.50;0.30;;;11.50;99.90;;;;;;5030635;28;20104;-92
2022/11/08 01:06:16;;;;;;;2.28;0.32;;;11.40;99.90;;;;;;5037459;28;20032;-76
2022/11/08 01:08:43;;;;;;;1.13;0.20;;;11.50;99.90;;;;;;5030479;28;20029;-91
2022/11/08 01:11:15;;;;;;;3.90;0.68;;;11.40;99.90;;;;;;5028611;28;20032;-91
2022/11/08 01:13:41;;;;;;;5.97;0.30;;;11.50;99.90;;;;;;5047556;28;20021;-89
2022/11/08 01:16:12;;;;;;;2.30;0.30;;;11.50;99.90;;;;;;5014267;28;20028;-80
2022/11/08 01:18:38;;;;;;;1.92;0.30;;;11.50;99.90;;;;;;5048887;28;20041;-88
2022/11/08 01:21:04;;;;;;;1.67;0.30;;;11.50;99.90;;;;;;5030559;28;20099;-89
2022/11/08 01:23:30;;;;;;;2.20;0.30;;;11.50;99.90;;;;;;5030261;28;20029;-79
2022/11/08 01:25:55;;;;;;;2.30;0.30;;;11.50;99.90;;;;;;5049124;28;20139;-76
2022/11/08 01:28:21;;;;;;;1.50;0.30;;;11.60;99.90;;;;;;5048195;28;20082;-79
2022/11/08 01:30:47;;;;;;;1.73;0.22;;;11.60;99.90;;;;;;5010886;28;20032;-89
2022/11/08 01:33:14;;;;;;;1.90;0.30;;;11.60;99.90;;;;;;5034436;28;20092;-82
2022/11/08 01:35:43;;;;;;;2.83;0.40;;;11.60;99.90;;;;;;5014810;28;20119;-78
2022/11/08 01:38:09;;;;;;;1.92;0.30;;;11.60;99.90;;;;;;5048456;28;20037;-90
2022/11/08 01:40:42;;;;;;;1.63;0.25;;;11.60;99.90;;;;;;5048310;28;20028;-85
2022/11/08 01:43:41;;;;;;;2.28;0.20;;;11.50;99.90;;;;;;5046814;28;20067;-82
2022/11/08 01:46:19;;;;;;;3.90;0.40;;;11.50;99.90;;;;;;5022530;28;20052;-91
2022/11/08 01:49:16;;;;;;;3.72;0.30;;;11.50;99.90;;;;;;5025671;28;20025;-86
2022/11/08 01:52:03;;;;;;;5.78;0.40;;;11.50;99.90;;;;;;5048398;28;20035;-76
2022/11/08 01:54:53;;;;;;;2.47;0.30;;;11.40;99.90;;;;;;5027385;28;20544;-86
2022/11/08 01:57:24;;;;;;;3.92;0.20;;;11.50;99.90;;;;;;5001190;28;20090;-78
2022/11/08 01:59:52;;;;;;;2.30;0.30;;;11.50;99.90;;;;;;5049041;28;20068;-79
2022/11/08 02:02:19;;;;;;;2.28;0.20;;;11.40;99.90;;;;;;5048213;28;20524;-78
2022/11/08 02:04:46;;;;;;;3.42;0.40;;;11.40;99.90;;;;;;5025012;28;20032;-77
2022/11/08 02:07:12;;;;;;;1.83;0.30;;;11.40;99.90;;;;;;5047140;28;20031;-76
2022/11/08 02:09:41;;;;;;;2.33;0.20;;;11.30;99.90;;;;;;5048380;28;20021;-92
2022/11/08 02:12:07;;;;;;;1.50;0.20;;;11.30;99.90;;;;;;5046631;28;20029;-77
2022/11/08 02:14:33;;;;;;;1.83;0.30;;;11.30;99.90;;;;;;5013830;28;20061;-83
2022/11/08 02:16:59;;;;;;;2.33;0.20;;;11.30;99.90;;;;;;5047594;28;20072;-87
2022/11/08 02:19:43;;;;;;;1.42;0.20;;;11.30;99.90;;;;;;5013629;28;20497;-91
2022/11/08 02:22:32;;;;;;;3.22;0.60;;;11.20;99.90;;;;;;5045888;28;20025;-81
2022/11/08 02:24:58;;;;;;;1.85;0.20;;;11.20;99.90;;;;;;5028017;28;20021;-89
2022/11/08 02:27:24;;;;;;;2.92;0.30;;;11.20;99.90;;;;;;5030042;28;20036;-86
2022/11/08 02:29:53;;;;;;;2.05;0.30;;;11.20;99.90;;;;;;5048274;28;20077;-91
2022/11/08 02:32:19;;;;;;;1.15;0.13;;;11.30;99.90;;;;;;5047674;28;20029;-81
2022/11/08 02:34:51;;;;;;;1.30;0.20;;;11.20;99.90;;;;;;5047572;28;20269;-78
2022/11/08 02:37:19;;;;;;;3.03;0.20;;;11.20;99.90;;;;;;5047102;28;20037;-79
2022/11/08 02:39:46;;;;;;;1.10;0.20;;;11.20;99.90;;;;;;5030418;28;20032;-89
2022/11/08 02:42:18;;;;;;;2.35;0.20;;;11.20;99.90;;;;;;5030655;28;20452;-88
2022/11/08 02:44:47;;;;;;;1.55;0.20;;;11.30;99.90;;;;;;5039947;28;20028;-89
2022/11/08 02:47:13;;;;;;;1.73;0.38;;;11.20;99.90;;;;;;5050638;28;20072;-89
2022/11/08 02:49:38;;;;;;;1.02;0.20;;;11.30;99.90;;;;;;5030275;28;20032;-89
2022/11/08 02:52:04;;;;;;;1.65;0.20;;;11.20;99.90;;;;;;5029079;28;20526;-79
2022/11/08 02:54:30;;;;;;;0.93;0.20;;;11.20;99.90;;;;;;5032613;28;20017;-87
2022/11/08 02:56:55;;;;;;;2.42;0.30;;;11.20;99.90;;;;;;5016239;28;20400;-77
2022/11/08 02:59:21;;;;;;;1.83;0.20;;;11.20;99.90;;;;;;5030479;28;20025;-92
2022/11/08 03:01:47;;;;;;;1.95;0.30;;;11.20;99.90;;;;;;5051553;28;20029;-79
2022/11/08 03:04:12;;;;;;;2.47;0.20;;;11.20;99.90;;;;;;5016428;28;20021;-87
2022/11/08 03:06:38;;;;;;;2.85;0.30;;;11.10;99.90;;;;;;5016929;28;20417;-91
2022/11/08 03:09:04;;;;;;;2.28;0.28;;;11.20;99.90;;;;;;5016505;28;20029;-81
2022/11/08 03:11:30;;;;;;;2.95;0.32;;;11.20;99.90;;;;;;5033660;28;20029;-90
2022/11/08 03:13:56;;;;;;;2.70;0.30;;;11.20;99.90;;;;;;5037958;28;20040;-83
2022/11/08 03:16:21;;;;;;;2.58;0.20;;;11.20;99.90;;;;;;5050960;28;20036;-92
2022/11/08 03:18:47;;;;;;;1.13;0.20;;;11.20;99.90;;;;;;5031429;28;20060;-82
2022/11/08 03:21:13;;;;;;;3.20;0.30;;;11.10;99.90;;;;;;5012823;28;20101;-86
2022/11/08 03:23:38;;;;;;;1.13;0.30;;;11.20;99.90;;;;;;5030786;28;20501;-92
2022/11/08 03:26:05;;;;;;;2.20;0.30;;;11.10;99.90;;;;;;5028920;28;20083;-79
2022/11/08 03:28:31;;;;;;;1.25;0.28;;;11.00;99.90;;;;;;5028982;28;20025;-76
2022/11/08 03:30:57;;;;;;;1.17;0.20;;;11.00;99.90;;;;;;5030871;28;20045;-83
2022/11/08 03:33:22;;;;;;;1.23;0.20;;;11.10;99.90;;;;;;5027819;28;20021;-76
2022/11/08 03:35:50;;;;;;;2.40;0.30;;;11.10;99.90;;;;;;5028725;28;20161;-90
2022/11/08 03:38:15;;;;;;;1.45;0.20;;;11.00;99.90;;;;;;5011278;28;20041;-91
2022/11/08 03:40:42;;;;;;;1.23;0.20;;;11.00;99.90;;;;;;5016904;28;20155;-78
2022/11/08 03:43:07;;;;;;;1.10;0.10;;;11.00;99.90;;;;;;5012620;28;20040;-91
2022/11/08 03:45:33;;;;;;;2.17;0.47;;;11.00;99.90;;;;;;5012382;28;20022;-76
2022/11/08 03:47:59;;;;;;;1.98;0.20;;;10.90;99.90;;;;;;5029839;28;20062;-76
2022/11/08 03:50:24;;;;;;;0.60;0.13;;;10.90;99.90;;;;;;5003369;28;20060;-90
2022/11/08 03:52:52;;;;;;;1.02;0.20;;;10.90;99.90;;;;;;5028322;28;20467;-82
2022/11/08 03:55:20;;;;;;;1.38;0.20;;;10.90;99.90;;;;;;5007852;28;20036;-84
2022/11/08 03:57:47;;;;;;;0.77;0.10;;;10.80;99.90;;;;;;5030024;28;20440;-86
2022/11/08 04:00:16;;;;;;;1.00;0.20;;;10.80;99.90;;;;;;5027654;28;20274;-79
2022/11/08 04:02:43;;;;;;;1.20;0.40;;;10.70;99.90;;;;;;5011890;28;20561;-79
2022/11/08 04:05:14;;;;;;;0.60;0.17;;;10.80;99.90;;;;;;5001937;28;20116;-91
2022/11/08 04:07:40;;;;;;;1.00;0.20;;;10.70;99.90;;;;;;5007338;28;20021;-77
2022/11/08 04:10:08;;;;;;;1.02;0.10;;;10.70;99.90;;;;;;5029977;28;20612;-76
2022/11/08 04:15:22;;;;;;;1.52;0.20;;;10.70;99.90;;;;;;5008897;28;20026;-78
2022/11/08 04:23:24;;;;;;;1.75;0.20;;;10.60;99.90;;;;;;5050447;28;20023;-88
2022/11/08 04:26:00;;;;;;;2.53;0.20;;;10.70;99.90;;;;;;5028224;28;20041;-92
2022/11/08 04:28:30;;;;;;;1.45;0.20;;;10.70;99.90;;;;;;5039467;28;20043;-75
2022/11/08 04:30:57;;;;;;;1.95;0.20;;;10.70;99.90;;;;;;5031090;28;20541;-78
2022/11/08 04:33:23;;;;;;;0.65;0.10;;;10.70;99.90;;;;;;5048526;28;20036;-78
2022/11/08 04:35:49;;;;;;;0.95;0.20;;;10.70;99.90;;;;;;5049544;28;20095;-79
2022/11/08 04:38:15;;;;;;;1.92;0.20;;;10.60;99.90;;;;;;5028276;28;20527;-77
2022/11/08 04:40:41;;;;;;;2.03;0.30;;;10.60;99.90;;;;;;5047704;28;20032;-79
2022/11/08 04:43:07;;;;;;;2.15;0.30;;;10.60;99.90;;;;;;5048876;28;20096;-82
2022/11/08 04:45:32;;;;;;;2.45;0.20;;;10.70;99.90;;;;;;5049219;28;20025;-76
2022/11/08 04:47:58;;;;;;;2.53;0.30;;;10.70;99.90;;;;;;5049337;28;20283;-77
2022/11/08 04:50:23;;;;;;;1.67;0.30;;;10.70;99.90;;;;;;5048881;28;20128;-79
2022/11/08 04:52:55;;;;;;;3.10;0.30;;;10.70;99.90;;;;;;5048530;28;20055;-88
2022/11/08 04:55:22;;;;;;;2.17;0.20;;;10.60;99.90;;;;;;5048690;28;20032;-82
2022/11/08 04:57:48;;;;;;;2.53;0.30;;;10.70;99.90;;;;;;5031043;28;20045;-79
2022/11/08 05:00:15;;;;;;;2.50;0.30;;;10.70;99.90;;;;;;5037628;28;20381;-78
2022/11/08 05:02:40;;;;;;;1.25;0.15;;;10.70;99.90;;;;;;5030930;28;20025;-87
2022/11/08 05:05:06;;;;;;;1.92;0.50;;;10.60;99.90;;;;;;5029146;28;20120;-76
2022/11/08 05:07:32;;;;;;;1.63;0.30;;;10.70;99.90;;;;;;5048498;28;20025;-90
2022/11/08 05:09:58;;;;;;;2.90;0.30;;;10.70;99.90;;;;;;5031020;28;20485;-90
2022/11/08 05:12:23;;;;;;;0.90;0.25;;;10.70;99.90;;;;;;5030795;28;20478;-76
2022/11/08 05:14:49;;;;;;;1.38;0.20;;;10.70;99.90;;;;;;5038891;28;20485;-79
2022/11/08 05:17:16;;;;;;;2.53;0.30;;;10.70;99.90;;;;;;5048346;28;20048;-79
2022/11/08 05:25:10;;;;;;;2.22;0.50;;;10.80;99.90;;;;;;5048670;28;20067;-77
2022/11/08 05:27:35;;;;;;;1.98;0.40;;;10.80;99.90;;;;;;5030206;28;20033;-76
2022/11/08 05:30:01;;;;;;;1.30;0.50;;;10.70;99.90;;;;;;5047983;28;20029;-79
2022/11/08 05:32:27;;;;;;;1.52;0.30;;;10.70;99.90;;;;;;5048677;28;20032;-86
2022/11/08 05:34:52;;;;;;;2.75;0.30;;;10.70;99.90;;;;;;5028234;28;20103;-90
2022/11/08 05:37:18;;;;;;;1.20;0.30;;;10.70;99.90;;;;;;5047141;28;20556;-78
2022/11/08 05:39:43;;;;;;;1.52;0.30;;;10.70;99.90;;;;;;5049347;28;20382;-88
2022/11/08 05:42:09;;;;;;;3.45;0.50;;;10.70;99.90;;;;;;5029392;28;20036;-79
2022/11/08 05:44:35;;;;;;;1.27;0.30;;;10.70;99.90;;;;;;5030393;28;20052;-85
2022/11/08 05:47:01;;;;;;;1.90;0.38;;;10.70;99.90;;;;;;5046991;28;20040;-81
2022/11/08 05:49:26;;;;;;;3.10;0.30;;;10.70;99.90;;;;;;5037810;28;20041;-77
2022/11/08 05:51:52;;;;;;;2.20;0.40;;;10.70;99.90;;;;;;5037016;28;20017;-92
2022/11/08 05:54:17;;;;;;;2.30;0.30;;;10.70;99.90;;;;;;5048431;28;20063;-76
2022/11/08 05:56:43;;;;;;;1.58;0.40;;;10.80;99.90;;;;;;5021384;28;20090;-83
2022/11/08 05:59:09;;;;;;;1.30;0.32;;;10.80;99.90;;;;;;5014132;28;20025;-89
2022/11/08 06:01:34;;;;;;;1.90;0.30;;;10.80;99.90;;;;;;5030694;28;20091;-81
2022/11/08 06:04:00;;;;;;;1.33;0.35;;;10.80;99.90;;;;;;5030203;28;20039;-90
2022/11/08 06:06:26;;;;;;;2.22;0.30;;;10.80;99.90;;;;;;5029841;28;20038;-79
2022/11/08 06:08:51;;;;;;;1.17;0.30;;;10.80;99.90;;;;;;5047835;28;20115;-93
2022/11/08 06:11:23;;;;;;;1.67;0.38;;;10.80;99.90;;;;;;5021243;28;20024;-80
2022/11/08 06:13:50;;;;;;;2.80;0.60;;;10.80;99.90;;;;;;5025099;28;20482;-77
2022/11/08 06:16:17;;;;;;;1.50;0.40;;;10.70;99.90;;;;;;5046967;28;20048;-86
2022/11/08 06:18:43;;;;;;;3.33;0.60;;;10.70;99.90;;;;;;5028095;28;20379;-84
2022/11/08 06:21:17;;;;;;;1.50;0.40;;;10.80;99.90;;;;;;4997459;28;20056;-90
2022/11/08 06:23:43;;;;;;;3.72;0.40;;;10.80;99.90;;;;;;5012967;28;20029;-77
2022/11/08 06:26:09;;;;;;;3.55;0.50;;;10.70;99.90;;;;;;5010861;28;20036;-79
2022/11/08 06:28:35;;;;;;;1.67;0.30;;;10.70;99.90;;;;;;4995459;28;20029;-79
2022/11/08 06:31:02;;;;;;;1.70;0.28;;;10.60;99.90;;;;;;4986527;28;20060;-88
2022/11/08 06:33:30;;;;;;;2.28;0.50;;;10.60;99.90;;;;;;4975161;28;20025;-77
2022/11/08 06:35:56;;;;;;;2.47;0.47;;;10.70;99.90;;;;;;5004294;28;20037;-83
2022/11/08 06:38:22;;;;;;;2.63;0.40;;;10.80;99.90;;;;;;5011363;28;20123;-80
2022/11/08 06:40:48;;;;;;;2.88;0.40;;;10.70;99.90;;;;;;5005231;28;20067;-85
2022/11/08 06:43:16;;;;;;;2.45;0.50;;;10.70;99.90;;;;;;5013599;28;20028;-77
2022/11/08 06:45:41;;;;;;;1.80;0.38;;;10.60;99.90;;;;;;4987381;28;20654;-85
2022/11/08 06:48:08;;;;;;;1.42;0.40;;;10.60;99.90;;;;;;5006144;28;20045;-82
2022/11/08 06:50:34;;;;;;;1.70;0.50;;;10.60;99.90;;;;;;5021137;28;20041;-78
2022/11/08 06:53:02;;;;;;;2.03;0.30;;;10.50;99.90;;;;;;5002565;28;20661;-77
2022/11/08 06:55:29;;;;;;;2.97;0.30;;;10.50;99.90;;;;;;5014856;28;20029;-77
2022/11/08 06:57:54;;;;;;;1.67;0.32;;;10.60;99.90;;;;;;5014999;28;20048;-76
2022/11/08 07:00:21;;;;;;;1.88;0.43;;;10.60;99.90;;;;;;5004593;28;20033;-77
2022/11/08 07:03:00;;;;;;;3.30;0.40;;;10.60;99.90;;;;;;5002045;28;20041;-76
2022/11/08 07:05:27;;;;;;;2.55;0.77;;;10.60;99.90;;;;;;5021126;28;20674;-76
2022/11/08 07:07:56;;;;;;;1.90;0.40;;;10.70;99.90;;;;;;5015641;28;20041;-78
2022/11/08 07:10:23;;;;;;;2.25;0.40;;;10.70;99.90;;;;;;5003980;28;20382;-77
2022/11/08 07:13:04;;;;;;;3.00;0.50;;;10.70;99.90;;;;;;5013902;28;20061;-80
2022/11/08 07:15:31;;;;;;;2.85;0.70;;;10.70;99.90;;;;;;5014759;28;20041;-79
2022/11/08 07:18:09;;;;;;;1.73;0.40;;;10.70;99.90;;;;;;5034883;28;20461;-77
2022/11/08 07:20:36;;;;;;;1.95;0.50;;;10.70;99.90;;;;;;5027641;28;20466;-85
2022/11/08 07:23:02;;;;;;;3.83;0.50;;;10.80;99.90;;;;;;5029396;28;20041;-77
2022/11/08 07:25:28;;;;;;;3.13;0.60;;;10.80;99.90;;;;;;5023248;28;20087;-79
2022/11/08 07:28:03;;;;;;;2.92;0.88;;;10.80;99.90;;;;;;5029226;28;20562;-76
2022/11/08 07:30:29;;;;;;;1.90;0.60;;;10.90;99.90;;;;;;5025911;28;20042;-76
2022/11/08 07:32:55;;;;;;;1.75;0.40;;;10.90;99.90;;;;;;5021519;28;20041;-76
2022/11/08 07:35:21;;;;;;;3.58;0.63;;;10.90;99.90;;;;;;5024238;28;20075;-78
2022/11/08 07:37:47;;;;;;;1.10;0.40;;;11.00;99.90;;;;;;5021993;28;20045;-85
2022/11/08 07:40:13;;;;;;;2.60;0.70;;;11.10;99.90;;;;;;5010587;28;20033;-94
2022/11/08 07:42:40;;;;;;;2.47;0.50;;;11.00;99.90;;;;;;5028510;28;20403;-77
2022/11/08 07:45:09;;;;;;;3.30;0.50;;;11.00;99.90;;;;;;5028582;28;20068;-76
2022/11/08 07:47:35;;;;;;;2.53;0.43;;;11.00;99.90;;;;;;5027539;28;20095;-77
2022/11/08 07:50:00;;;;;;;1.85;0.50;;;11.10;99.90;;;;;;5025378;28;20038;-77
2022/11/08 07:52:26;;;;;;;1.52;0.50;;;11.10;99.90;;;;;;5024711;28;20030;-76
2022/11/08 07:54:52;;;;;;;3.83;0.63;;;11.20;99.90;;;;;;5023724;28;20128;-78
2022/11/08 07:57:18;;;;;;;2.05;0.60;;;11.20;99.90;;;;;;5006424;28;20743;-79
2022/11/08 07:59:43;;;;;;;4.68;0.73;;;11.20;99.90;;;;;;5006651;28;20316;-79
2022/11/08 08:02:13;;;;;;;1.70;0.50;;;11.30;99.90;;;;;;5009293;28;20155;-76
2022/11/08 08:04:39;;;;;;;2.30;0.60;;;11.30;99.90;;;;;;5024163;28;20063;-83
2022/11/08 08:07:05;;;;;;;3.10;0.60;;;11.30;99.90;;;;;;5025810;28;20028;-79
2022/11/08 08:09:34;;;;;;;2.15;0.60;;;11.30;99.90;;;;;;5007575;28;20476;-76
2022/11/08 08:12:00;;;;;;;2.75;0.80;;;11.40;99.90;;;;;;5014038;28;20042;-80
2022/11/08 08:14:26;;;;;;;2.42;0.60;;;11.50;99.90;;;;;;5024041;28;20029;-75
2022/11/08 08:16:52;;;;;;;3.22;0.50;;;11.50;99.90;;;;;;5008126;28;20057;-76
2022/11/08 08:19:17;;;;;;;1.95;0.60;;;11.50;99.90;;;;;;5033812;28;20103;-78
2022/11/08 08:21:43;;;;;;;2.70;0.60;;;11.60;99.90;;;;;;5013320;28;20040;-76
2022/11/08 08:24:09;;;;;;;1.73;0.50;;;11.60;99.90;;;;;;5012911;28;20941;-84
2022/11/08 08:26:35;;;;;;;2.75;0.70;;;11.60;99.90;;;;;;5013867;28;20036;-82
2022/11/08 08:29:00;;;;;;;1.52;0.50;;;11.60;99.90;;;;;;5013890;28;20346;-85
2022/11/08 08:31:26;;;;;;;2.08;0.50;;;11.60;99.90;;;;;;5006171;28;20030;-89
2022/11/08 08:33:52;;;;;;;2.65;0.50;;;11.70;99.90;;;;;;5005355;28;20115;-87
2022/11/08 08:36:17;;;;;;;2.92;0.80;;;11.70;99.90;;;;;;5010520;28;20057;-86
2022/11/08 08:38:43;;;;;;;3.15;0.95;;;11.80;99.90;;;;;;5016101;28;20060;-88
2022/11/08 08:41:09;;;;;;;1.63;0.40;;;11.80;99.90;;;;;;4998581;28;20024;-86
2022/11/08 08:43:34;;;;;;;1.60;0.50;;;11.90;99.90;;;;;;5014111;28;20465;-87
2022/11/08 08:46:02;;;;;;;2.67;0.68;;;11.90;99.90;;;;;;5032792;28;20029;-87
2022/11/08 08:48:28;;;;;;;2.05;0.50;;;12.10;99.90;;;;;;5001742;28;20037;-87
2022/11/08 08:50:54;;;;;;;1.52;0.50;;;12.10;99.90;;;;;;5013240;28;20045;-87
2022/11/08 08:53:20;;;;;;;2.75;0.50;;;12.10;99.90;;;;;;5012238;28;20098;-88
2022/11/08 08:55:52;;;;;;;2.45;0.50;;;12.30;99.90;;;;;;5019662;28;20098;-88
2022/11/08 08:58:20;;;;;;;1.52;0.40;;;12.40;99.90;;;;;;5033776;28;20072;-89
2022/11/08 09:00:47;;;;;;;2.13;0.60;;;12.40;99.90;;;;;;5015805;28;20646;-90
2022/11/08 09:03:16;;;;;;;;;;;12.50;99.90;;;;;;5013483;28;20048;-87
2022/11/08 09:05:55;;;;;;;1.67;0.30;;;12.50;99.90;;;;;;5029927;28;19917;-89
2022/11/08 09:08:23;;;;;;;0.85;0.32;;;12.60;99.90;;;;;;5014702;28;20037;-88
2022/11/08 09:10:57;;;;;;;1.10;0.40;;;12.70;99.90;;;;;;5014200;28;20032;-88
2022/11/08 09:13:25;;;;;;;1.38;0.30;;;12.70;99.90;;;;;;5013971;28;20410;-88
2022/11/08 09:15:52;;;;;;;1.58;0.30;;;12.70;99.90;;;;;;5012774;28;20067;-86
2022/11/08 09:18:18;;;;;;;2.15;0.40;;;12.80;99.90;;;;;;4997122;28;20100;-87
2022/11/08 09:20:44;;;;;;;1.30;0.20;;;12.80;99.90;;;;;;4994163;28;20109;-87
2022/11/08 09:23:10;;;;;;;1.73;0.30;;;12.80;99.90;;;;;;4978661;28;20482;-88
2022/11/08 09:25:36;;;;;;;1.52;0.25;;;12.90;99.90;;;;;;4989209;28;20065;-88
2022/11/08 09:28:02;;;;;;;0.98;0.30;;;12.90;99.90;;;;;;4992739;28;20457;-88
2022/11/08 09:30:28;;;;;;;0.80;0.20;;;12.90;99.90;;;;;;4989897;28;20154;-86
2022/11/08 09:32:53;;;;;;;1.05;0.20;;;13.00;99.90;;;;;;4986858;28;20653;-87
2022/11/08 09:35:19;;;;;;;0.80;0.30;;;13.00;99.90;;;;;;4985725;28;20037;-86
2022/11/08 09:37:45;;;;;;;0.98;0.30;;;13.00;99.90;;;;;;5003814;28;20037;-88
2022/11/08 09:40:26;;;;;;;1.45;0.30;;;13.00;99.90;;;;;;4987408;28;20497;-87
2022/11/08 09:43:29;;;;;;;2.63;0.38;;;13.00;99.90;;;;;;4988992;28;20131;-88
2022/11/08 09:45:56;;;;;;;1.20;0.30;;;13.00;99.90;;;;;;4993874;28;20049;-89
2022/11/08 09:48:35;;;;;;;1.20;0.20;;;13.10;99.90;;;;;;4989004;28;20038;-88
2022/11/08 09:51:09;;;;;;;1.30;0.20;;;13.20;99.90;;;;;;4969719;28;20038;-89
2022/11/08 09:53:48;;;;;;;1.05;0.30;;;13.30;99.90;;;;;;5004784;28;20395;-90
2022/11/08 09:56:23;;;;;;;0.70;0.20;;;13.40;99.90;;;;;;4993629;28;20049;-87
2022/11/08 09:59:01;;;;;;;1.33;0.20;;;13.40;99.90;;;;;;4992576;28;20494;-86
2022/11/08 10:01:32;;;;;;;1.60;0.20;;;13.50;99.90;;;;;;4988762;28;20034;-90
2022/11/08 10:04:20;;;;;;;1.77;0.20;;;13.50;99.90;;;;;;5005619;28;20148;-90
2022/11/08 10:07:02;;;;;;;3.08;0.25;;;13.50;99.90;;;;;;4979475;28;20040;-91
2022/11/08 10:09:58;;;;;;;1.63;0.20;;;13.50;99.90;;;;;;4989160;28;20033;-92
2022/11/08 10:12:44;;;;;;;1.70;0.20;;;13.50;99.90;;;;;;4988295;28;20038;-90
2022/11/08 10:15:33;;;;;;;1.35;0.28;;;13.50;99.90;;;;;;5004742;28;20034;-90
2022/11/08 10:18:11;;;;;;;0.90;0.20;;;13.60;99.90;;;;;;5000912;28;20108;-90
2022/11/08 10:21:01;;;;;;;1.98;0.40;;;13.60;99.90;;;;;;5009917;28;20063;-88
2022/11/08 10:23:57;;;;;;;2.25;0.38;;;13.60;99.90;;;;;;5011689;28;20156;-89
2022/11/08 10:26:33;;;;;;;2.08;0.30;;;13.60;99.90;;;;;;5016455;28;20036;-89
2022/11/08 10:29:07;;;;;;;0.93;0.22;;;13.70;99.90;;;;;;5020588;28;20033;-89
2022/11/08 10:31:36;;;;;;;1.63;0.20;;;13.80;99.90;;;;;;5011102;28;20103;-91
2022/11/08 10:34:08;;;;;;;0.90;0.30;;;13.80;99.90;;;;;;5023450;28;20383;-89
2022/11/08 10:36:36;;;;;;;1.88;0.30;;;13.80;99.90;;;;;;5008557;28;20038;-90
2022/11/08 10:39:08;;;;;;;1.17;0.30;;;13.80;99.90;;;;;;5012310;28;20520;-89
2022/11/08 10:42:09;;;;;;;1.90;0.30;;;13.90;99.90;;;;;;5012292;28;20404;-88
2022/11/08 10:44:35;;;;;;;0.90;0.20;;;13.90;99.90;;;;;;5023891;28;20067;-89
2022/11/08 10:47:04;;;;;;;1.30;0.20;;;13.90;99.90;;;;;;5025490;28;20108;-90
2022/11/08 10:49:31;;;;;;;1.48;0.20;;;14.00;99.90;;;;;;4995414;28;20323;-89
2022/11/08 10:51:59;;;;;;;1.73;0.40;;;13.90;99.90;;;;;;5013916;28;20123;-90
2022/11/08 10:54:41;;;;;;;2.28;0.20;;;14.00;99.90;;;;;;5010592;28;20029;-90
2022/11/08 10:57:12;;;;;;;1.27;0.30;;;14.00;99.90;;;;;;5027163;28;20314;-89
2022/11/08 10:59:38;;;;;;;3.25;0.40;;;13.90;99.90;;;;;;5004452;28;20067;-88
2022/11/08 11:02:31;;;;;;;1.35;0.30;;;13.90;99.90;;;;;;5007144;28;20037;-92
2022/11/08 11:05:26;;;;;;;1.70;0.20;;;14.00;99.90;;;;;;5016795;28;20038;-91
2022/11/08 11:08:00;;;;;;;1.30;0.30;;;14.00;99.90;;;;;;5006099;28;20091;-89
2022/11/08 11:10:29;;;;;;;1.27;0.30;;;14.10;99.90;;;;;;5013467;28;20033;-89
2022/11/08 11:13:17;;;;;;;2.15;0.35;;;14.10;99.90;;;;;;5012573;28;20301;-92
2022/11/08 11:15:57;;;;;;;2.17;0.50;;;14.20;99.90;;;;;;5012171;28;20047;-89
2022/11/08 11:18:28;;;;;;;;;;;14.20;99.90;;;;;;5017430;28;20064;-89
2022/11/08 11:21:01;;;;;;;1.45;0.22;;;14.20;99.90;;;;;;5019973;28;20641;-90
2022/11/08 11:23:49;;;;;;;0.70;0.20;;;14.10;99.90;;;;;;5022139;28;20626;-89
2022/11/08 11:26:44;;;;;;;1.45;0.30;;;14.10;99.90;;;;;;4990270;28;20549;-91
2022/11/08 11:29:22;;;;;;;1.95;0.20;;;14.10;99.90;;;;;;4961381;28;20870;-91
2022/11/08 11:31:50;;;;;;;2.65;0.20;;;14.10;99.90;;;;;;5015829;28;20037;-89
2022/11/08 11:34:16;;;;;;;1.88;0.20;;;14.10;99.90;;;;;;5003221;28;20067;-89
2022/11/08 11:36:52;;;;;;;3.25;0.30;;;14.20;99.90;;;;;;5017437;28;20595;-89
2022/11/08 11:39:26;;;;;;;1.52;0.20;;;14.20;99.90;;;;;;5021711;28;20529;-89
2022/11/08 11:42:08;;;;;;;0.98;0.20;;;14.30;99.90;;;;;;5003496;28;20040;-90
2022/11/08 11:44:54;;;;;;;1.95;0.20;;;14.40;99.90;;;;;;5007506;28;20037;-88
2022/11/08 11:47:28;;;;;;;0.95;0.20;;;14.60;99.90;;;;;;5003132;28;20029;-89
2022/11/08 11:49:59;;;;;;;2.58;0.25;;;14.70;99.90;;;;;;5005497;28;20645;-89
2022/11/08 11:52:25;;;;;;;0.80;0.20;;;14.90;99.90;;;;;;5000344;28;20184;-90
2022/11/08 11:54:50;;;;;;;1.45;0.20;;;14.80;99.90;;;;;;4975829;28;20144;-89
2022/11/08 11:57:42;;;;;;;1.95;0.28;;;14.70;99.90;;;;;;5005148;28;20496;-89
2022/11/08 12:00:13;;;;;;;1.88;0.20;;;14.70;99.90;;;;;;5020690;28;20057;-90
2022/11/08 12:03:00;;;;;;;1.13;0.20;;;14.70;99.90;;;;;;5005786;28;20569;-87
2022/11/08 12:05:35;;;;;;;1.05;0.20;;;14.70;99.90;;;;;;5021671;28;20329;-87
2022/11/08 12:08:35;;;;;;;2.40;0.20;;;14.80;99.90;;;;;;4997380;28;20021;-91
2022/11/08 12:11:22;;;;;;;2.28;0.30;;;14.80;99.90;;;;;;5011092;28;20564;-86
2022/11/08 12:14:05;;;;;;;3.42;0.40;;;14.70;99.90;;;;;;4993911;28;20526;-88
2022/11/08 12:17:09;;;;;;;1.85;0.43;;;14.80;99.90;;;;;;4993931;28;20029;-88
2022/11/08 12:19:46;;;;;;;1.50;0.35;;;14.90;99.90;;;;;;5003689;28;20049;-85
2022/11/08 12:22:57;;;;;;;1.92;0.40;;;14.90;99.90;;;;;;4972930;28;20117;-89
2022/11/08 12:25:41;;;;;;;1.83;0.40;;;15.00;99.90;;;;;;4950613;28;20408;-90
2022/11/08 12:28:40;;;;;;;1.30;0.30;;;15.20;99.90;;;;;;4967125;28;20049;-91
2022/11/08 12:31:19;;;;;;;2.03;0.30;;;15.30;99.90;;;;;;4964166;28;20564;-88
2022/11/08 12:34:20;;;;;;;1.40;0.20;;;15.30;99.90;;;;;;4950543;28;20046;-88
2022/11/08 12:37:23;;;;;;;0.95;0.20;;;15.20;99.90;;;;;;4965808;28;20065;-88
2022/11/08 12:39:57;;;;;;;1.10;0.30;;;15.10;99.90;;;;;;4964090;28;20051;-89
2022/11/08 12:43:07;;;;;;;2.97;0.30;;;15.00;99.90;;;;;;4964083;28;20090;-88
2022/11/08 12:46:05;;;;;;;2.47;0.30;;;15.00;99.90;;;;;;4967070;28;20061;-88
2022/11/08 12:48:46;;;;;;;1.33;0.40;;;14.90;99.90;;;;;;4966658;28;20108;-90
2022/11/08 12:51:55;;;;;;;0.82;0.20;;;15.00;99.90;;;;;;4951422;28;20039;-90
2022/11/08 12:54:34;;;;;;;1.15;0.20;;;14.90;99.90;;;;;;4942593;28;20023;-90
2022/11/08 12:57:05;;;;;;;0.90;0.20;;;14.90;99.90;;;;;;4960492;28;20130;-91
2022/11/08 12:59:44;;;;;;;1.15;0.20;;;14.90;99.90;;;;;;4963532;28;20038;-90
2022/11/08 13:02:26;;;;;;;0.75;0.20;;;14.80;99.90;;;;;;4964269;28;20105;-89
2022/11/08 13:04:55;;;;;;;1.75;0.30;;;14.80;99.90;;;;;;4951554;28;20122;-89
2022/11/08 13:07:37;;;;;;;1.50;0.20;;;14.80;99.90;;;;;;4947328;28;20411;-91
2022/11/08 13:10:36;;;;;;;2.00;0.20;;;14.70;99.90;;;;;;4947266;28;20046;-92
2022/11/08 13:13:22;;;;;;;0.90;0.20;;;14.70;99.90;;;;;;4944656;28;20038;-94
2022/11/08 13:16:08;;;;;;;1.27;0.20;;;14.70;99.90;;;;;;4974574;28;20037;-89
2022/11/08 13:18:42;;;;;;;1.00;0.20;;;14.80;99.90;;;;;;5008465;28;20454;-90
2022/11/08 13:21:36;;;;;;;3.33;0.30;;;14.80;99.90;;;;;;5008485;28;20079;-87
2022/11/08 13:24:05;;;;;;;1.17;0.20;;;14.80;99.90;;;;;;5005188;28;20124;-95
2022/11/08 13:26:32;;;;;;;1.60;0.30;;;14.90;99.90;;;;;;5014867;28;20437;-93
2022/11/08 13:29:17;;;;;;;0.80;0.20;;;15.00;99.90;;;;;;5005906;28;20133;-90
2022/11/08 13:32:06;;;;;;;1.48;0.20;;;15.10;99.90;;;;;;5013008;28;20037;-92